In Rescue
 
Open Full Screen Window  High Contrast Mode
Wind Gusting 00 knots
06
March 29, 2020 8:08 PM EDT
Present Weather: Light Rain
Weather Information
Wind Direction
  200 °
Wind Speed
  06 kt (7 mph)
Wind Gust
  00 kt (0 mph)
Altimeter
29.55 in
Visibility
5 SM
Temperature
06° C
43° F
Dewpoint
04° C
39° F
Humidity
87%
Sky Condition
Overcast @ 1,400 ft
Scattered @ 700 ft
MVFR

METAR KCVX 300008Z AUTO 20006KT 5SM -RA SCT007 OVC014 06/04 A2955 RMK AO2 T00550041

FAA Disclaimer: The data displayed is for advisory purposes only and is not to be used for flight planning or operations.